sensor_id;sensor_type;location;lat;lon;timestamp;P1;durP1;ratioP1;P2;durP2;ratioP2
65377;SDS011;51982;51.042;13.806;2023-07-22T00:01:32;6.13;;;2.15;;
65377;SDS011;51982;51.042;13.806;2023-07-22T00:03:58;2.13;;;1.92;;
65377;SDS011;51982;51.042;13.806;2023-07-22T00:06:23;2.80;;;1.92;;
65377;SDS011;51982;51.042;13.806;2023-07-22T00:08:49;3.55;;;1.88;;
65377;SDS011;51982;51.042;13.806;2023-07-22T00:11:14;2.72;;;1.88;;
65377;SDS011;51982;51.042;13.806;2023-07-22T00:13:40;6.13;;;2.15;;
65377;SDS011;51982;51.042;13.806;2023-07-22T00:16:05;3.22;;;2.00;;
65377;SDS011;51982;51.042;13.806;2023-07-22T00:18:32;4.28;;;1.90;;
65377;SDS011;51982;51.042;13.806;2023-07-22T00:20:58;4.30;;;1.80;;
65377;SDS011;51982;51.042;13.806;2023-07-22T00:23:24;3.53;;;2.25;;
65377;SDS011;51982;51.042;13.806;2023-07-22T00:25:49;2.28;;;1.67;;
65377;SDS011;51982;51.042;13.806;2023-07-22T00:28:15;3.95;;;2.10;;
65377;SDS011;51982;51.042;13.806;2023-07-22T00:30:40;3.10;;;1.92;;
65377;SDS011;51982;51.042;13.806;2023-07-22T00:33:06;5.00;;;2.00;;
65377;SDS011;51982;51.042;13.806;2023-07-22T00:35:32;5.68;;;2.08;;
65377;SDS011;51982;51.042;13.806;2023-07-22T00:37:57;5.25;;;1.90;;
65377;SDS011;51982;51.042;13.806;2023-07-22T00:40:23;4.72;;;1.98;;
65377;SDS011;51982;51.042;13.806;2023-07-22T00:42:48;5.35;;;1.90;;
65377;SDS011;51982;51.042;13.806;2023-07-22T00:45:14;2.97;;;1.88;;
65377;SDS011;51982;51.042;13.806;2023-07-22T00:47:39;2.58;;;2.08;;
65377;SDS011;51982;51.042;13.806;2023-07-22T00:50:06;3.75;;;2.15;;
65377;SDS011;51982;51.042;13.806;2023-07-22T00:52:32;5.28;;;1.98;;
65377;SDS011;51982;51.042;13.806;2023-07-22T00:54:58;6.43;;;2.10;;
65377;SDS011;51982;51.042;13.806;2023-07-22T00:57:24;2.45;;;1.92;;
65377;SDS011;51982;51.042;13.806;2023-07-22T00:59:49;2.97;;;2.20;;
65377;SDS011;51982;51.042;13.806;2023-07-22T01:02:15;2.30;;;1.92;;
65377;SDS011;51982;51.042;13.806;2023-07-22T01:04:40;3.95;;;2.10;;
65377;SDS011;51982;51.042;13.806;2023-07-22T01:07:06;3.97;;;2.25;;
65377;SDS011;51982;51.042;13.806;2023-07-22T01:09:35;5.90;;;2.10;;
65377;SDS011;51982;51.042;13.806;2023-07-22T01:12:04;4.15;;;2.00;;
65377;SDS011;51982;51.042;13.806;2023-07-22T01:14:37;4.07;;;1.90;;
65377;SDS011;51982;51.042;13.806;2023-07-22T01:17:04;2.80;;;2.00;;
65377;SDS011;51982;51.042;13.806;2023-07-22T01:19:30;3.38;;;2.03;;
65377;SDS011;51982;51.042;13.806;2023-07-22T01:21:57;4.63;;;2.03;;
65377;SDS011;51982;51.042;13.806;2023-07-22T01:24:25;3.95;;;2.20;;
65377;SDS011;51982;51.042;13.806;2023-07-22T01:26:51;4.35;;;2.00;;
65377;SDS011;51982;51.042;13.806;2023-07-22T01:29:16;4.35;;;1.83;;
65377;SDS011;51982;51.042;13.806;2023-07-22T01:31:41;5.72;;;2.38;;
65377;SDS011;51982;51.042;13.806;2023-07-22T01:34:07;3.47;;;2.00;;
65377;SDS011;51982;51.042;13.806;2023-07-22T01:36:32;2.15;;;1.92;;
65377;SDS011;51982;51.042;13.806;2023-07-22T01:38:57;3.50;;;2.00;;
65377;SDS011;51982;51.042;13.806;2023-07-22T01:41:23;2.83;;;1.98;;
65377;SDS011;51982;51.042;13.806;2023-07-22T01:43:48;3.78;;;1.85;;
65377;SDS011;51982;51.042;13.806;2023-07-22T01:46:13;4.15;;;2.10;;
65377;SDS011;51982;51.042;13.806;2023-07-22T01:48:39;5.43;;;2.00;;
65377;SDS011;51982;51.042;13.806;2023-07-22T01:51:04;4.07;;;2.03;;
65377;SDS011;51982;51.042;13.806;2023-07-22T01:53:30;4.78;;;2.10;;
65377;SDS011;51982;51.042;13.806;2023-07-22T01:55:55;2.85;;;1.92;;
65377;SDS011;51982;51.042;13.806;2023-07-22T01:58:20;6.68;;;2.00;;
65377;SDS011;51982;51.042;13.806;2023-07-22T02:00:49;2.58;;;1.80;;
65377;SDS011;51982;51.042;13.806;2023-07-22T02:03:15;3.95;;;1.90;;
65377;SDS011;51982;51.042;13.806;2023-07-22T02:05:40;4.73;;;1.67;;
65377;SDS011;51982;51.042;13.806;2023-07-22T02:08:06;4.07;;;2.00;;
65377;SDS011;51982;51.042;13.806;2023-07-22T02:10:31;4.70;;;2.00;;
65377;SDS011;51982;51.042;13.806;2023-07-22T02:12:56;4.35;;;2.08;;
65377;SDS011;51982;51.042;13.806;2023-07-22T02:15:21;5.50;;;1.98;;
65377;SDS011;51982;51.042;13.806;2023-07-22T02:17:49;4.55;;;2.20;;
65377;SDS011;51982;51.042;13.806;2023-07-22T02:20:14;5.05;;;2.10;;
65377;SDS011;51982;51.042;13.806;2023-07-22T02:22:39;2.80;;;2.22;;
65377;SDS011;51982;51.042;13.806;2023-07-22T02:25:05;4.00;;;2.03;;
65377;SDS011;51982;51.042;13.806;2023-07-22T02:27:31;3.33;;;2.05;;
65377;SDS011;51982;51.042;13.806;2023-07-22T02:29:56;3.78;;;1.92;;
65377;SDS011;51982;51.042;13.806;2023-07-22T02:32:22;5.78;;;2.05;;
65377;SDS011;51982;51.042;13.806;2023-07-22T02:34:47;4.07;;;2.15;;
65377;SDS011;51982;51.042;13.806;2023-07-22T02:37:12;3.67;;;2.10;;
65377;SDS011;51982;51.042;13.806;2023-07-22T02:39:37;4.13;;;2.15;;
65377;SDS011;51982;51.042;13.806;2023-07-22T02:42:03;7.03;;;2.30;;
65377;SDS011;51982;51.042;13.806;2023-07-22T02:44:28;5.80;;;2.03;;
65377;SDS011;51982;51.042;13.806;2023-07-22T02:46:53;2.95;;;2.08;;
65377;SDS011;51982;51.042;13.806;2023-07-22T02:49:19;4.83;;;2.43;;
65377;SDS011;51982;51.042;13.806;2023-07-22T02:51:44;6.88;;;2.50;;
65377;SDS011;51982;51.042;13.806;2023-07-22T02:54:09;7.47;;;2.42;;
65377;SDS011;51982;51.042;13.806;2023-07-22T02:56:35;3.45;;;2.15;;
65377;SDS011;51982;51.042;13.806;2023-07-22T02:59:00;5.07;;;2.30;;
65377;SDS011;51982;51.042;13.806;2023-07-22T03:01:25;7.22;;;2.80;;
65377;SDS011;51982;51.042;13.806;2023-07-22T03:03:50;3.30;;;2.20;;
65377;SDS011;51982;51.042;13.806;2023-07-22T03:06:16;6.85;;;2.70;;
65377;SDS011;51982;51.042;13.806;2023-07-22T03:08:41;7.10;;;2.42;;
65377;SDS011;51982;51.042;13.806;2023-07-22T03:11:06;7.82;;;2.28;;
65377;SDS011;51982;51.042;13.806;2023-07-22T03:13:32;3.65;;;2.35;;
65377;SDS011;51982;51.042;13.806;2023-07-22T03:15:58;6.72;;;2.60;;
65377;SDS011;51982;51.042;13.806;2023-07-22T03:18:24;8.65;;;2.40;;
65377;SDS011;51982;51.042;13.806;2023-07-22T03:20:49;4.88;;;2.38;;
65377;SDS011;51982;51.042;13.806;2023-07-22T03:23:14;6.15;;;2.60;;
65377;SDS011;51982;51.042;13.806;2023-07-22T03:25:39;4.13;;;2.77;;
65377;SDS011;51982;51.042;13.806;2023-07-22T03:28:06;4.45;;;2.50;;
65377;SDS011;51982;51.042;13.806;2023-07-22T03:30:32;7.53;;;3.17;;
65377;SDS011;51982;51.042;13.806;2023-07-22T03:32:58;4.43;;;2.63;;
65377;SDS011;51982;51.042;13.806;2023-07-22T03:35:25;8.13;;;2.70;;
65377;SDS011;51982;51.042;13.806;2023-07-22T03:37:50;4.18;;;2.50;;
65377;SDS011;51982;51.042;13.806;2023-07-22T03:40:15;4.40;;;2.60;;
65377;SDS011;51982;51.042;13.806;2023-07-22T03:42:44;7.45;;;2.80;;
65377;SDS011;51982;51.042;13.806;2023-07-22T03:45:11;6.80;;;2.60;;
65377;SDS011;51982;51.042;13.806;2023-07-22T03:47:37;6.18;;;2.47;;
65377;SDS011;51982;51.042;13.806;2023-07-22T03:50:03;8.07;;;3.28;;
65377;SDS011;51982;51.042;13.806;2023-07-22T03:52:29;6.75;;;2.53;;
65377;SDS011;51982;51.042;13.806;2023-07-22T03:54:54;9.23;;;2.53;;
65377;SDS011;51982;51.042;13.806;2023-07-22T03:57:24;3.65;;;2.47;;
65377;SDS011;51982;51.042;13.806;2023-07-22T03:59:50;8.20;;;3.00;;
65377;SDS011;51982;51.042;13.806;2023-07-22T04:02:15;6.50;;;3.00;;
65377;SDS011;51982;51.042;13.806;2023-07-22T04:04:40;9.48;;;3.20;;
65377;SDS011;51982;51.042;13.806;2023-07-22T04:07:06;9.53;;;2.77;;
65377;SDS011;51982;51.042;13.806;2023-07-22T04:09:33;7.45;;;2.63;;
65377;SDS011;51982;51.042;13.806;2023-07-22T04:11:58;5.07;;;2.35;;
65377;SDS011;51982;51.042;13.806;2023-07-22T04:14:23;5.15;;;2.40;;
65377;SDS011;51982;51.042;13.806;2023-07-22T04:16:48;5.95;;;2.53;;
65377;SDS011;51982;51.042;13.806;2023-07-22T04:19:14;5.55;;;2.30;;
65377;SDS011;51982;51.042;13.806;2023-07-22T04:21:41;10.10;;;2.50;;
65377;SDS011;51982;51.042;13.806;2023-07-22T04:24:06;4.05;;;2.80;;
65377;SDS011;51982;51.042;13.806;2023-07-22T04:26:32;4.97;;;2.70;;
65377;SDS011;51982;51.042;13.806;2023-07-22T04:28:57;3.97;;;2.57;;
65377;SDS011;51982;51.042;13.806;2023-07-22T04:31:22;7.63;;;2.83;;
65377;SDS011;51982;51.042;13.806;2023-07-22T04:33:47;4.20;;;2.58;;
65377;SDS011;51982;51.042;13.806;2023-07-22T04:36:13;8.07;;;2.67;;
65377;SDS011;51982;51.042;13.806;2023-07-22T04:38:38;7.33;;;3.00;;
65377;SDS011;51982;51.042;13.806;2023-07-22T04:41:03;3.85;;;2.55;;
65377;SDS011;51982;51.042;13.806;2023-07-22T04:43:29;5.38;;;2.97;;
65377;SDS011;51982;51.042;13.806;2023-07-22T04:45:55;5.07;;;2.60;;
65377;SDS011;51982;51.042;13.806;2023-07-22T04:48:20;5.75;;;2.60;;
65377;SDS011;51982;51.042;13.806;2023-07-22T04:50:48;4.38;;;2.42;;
65377;SDS011;51982;51.042;13.806;2023-07-22T04:53:13;4.23;;;2.60;;
65377;SDS011;51982;51.042;13.806;2023-07-22T04:55:39;7.15;;;2.22;;
65377;SDS011;51982;51.042;13.806;2023-07-22T04:58:05;5.45;;;2.30;;
65377;SDS011;51982;51.042;13.806;2023-07-22T05:00:30;2.70;;;2.22;;
65377;SDS011;51982;51.042;13.806;2023-07-22T05:02:55;3.47;;;2.47;;
65377;SDS011;51982;51.042;13.806;2023-07-22T05:05:21;3.63;;;2.20;;
65377;SDS011;51982;51.042;13.806;2023-07-22T05:07:47;8.82;;;2.88;;
65377;SDS011;51982;51.042;13.806;2023-07-22T05:10:14;8.90;;;2.50;;
65377;SDS011;51982;51.042;13.806;2023-07-22T05:12:39;10.20;;;2.28;;
65377;SDS011;51982;51.042;13.806;2023-07-22T05:15:05;2.80;;;2.20;;
65377;SDS011;51982;51.042;13.806;2023-07-22T05:17:31;4.72;;;2.33;;
65377;SDS011;51982;51.042;13.806;2023-07-22T05:19:57;10.35;;;2.35;;
65377;SDS011;51982;51.042;13.806;2023-07-22T05:22:22;6.90;;;2.35;;
65377;SDS011;51982;51.042;13.806;2023-07-22T05:24:47;11.93;;;2.70;;
65377;SDS011;51982;51.042;13.806;2023-07-22T05:27:13;5.80;;;2.40;;
65377;SDS011;51982;51.042;13.806;2023-07-22T05:29:38;6.93;;;2.90;;
65377;SDS011;51982;51.042;13.806;2023-07-22T05:32:03;6.23;;;2.90;;
65377;SDS011;51982;51.042;13.806;2023-07-22T05:34:29;3.35;;;2.50;;
65377;SDS011;51982;51.042;13.806;2023-07-22T05:36:54;4.60;;;2.40;;
65377;SDS011;51982;51.042;13.806;2023-07-22T05:39:19;4.97;;;2.37;;
65377;SDS011;51982;51.042;13.806;2023-07-22T05:41:44;5.23;;;2.50;;
65377;SDS011;51982;51.042;13.806;2023-07-22T05:44:10;4.72;;;2.67;;
65377;SDS011;51982;51.042;13.806;2023-07-22T05:46:35;5.20;;;2.67;;
65377;SDS011;51982;51.042;13.806;2023-07-22T05:49:00;6.47;;;2.90;;
65377;SDS011;51982;51.042;13.806;2023-07-22T05:51:25;4.82;;;2.50;;
65377;SDS011;51982;51.042;13.806;2023-07-22T05:53:51;4.13;;;2.67;;
65377;SDS011;51982;51.042;13.806;2023-07-22T05:56:16;4.50;;;2.80;;
65377;SDS011;51982;51.042;13.806;2023-07-22T05:58:41;7.18;;;2.70;;
65377;SDS011;51982;51.042;13.806;2023-07-22T06:01:07;7.53;;;2.30;;
65377;SDS011;51982;51.042;13.806;2023-07-22T06:03:32;4.85;;;2.60;;
65377;SDS011;51982;51.042;13.806;2023-07-22T06:05:58;5.30;;;2.70;;
65377;SDS011;51982;51.042;13.806;2023-07-22T06:08:23;5.05;;;2.83;;
65377;SDS011;51982;51.042;13.806;2023-07-22T06:10:49;3.55;;;2.70;;
65377;SDS011;51982;51.042;13.806;2023-07-22T06:13:14;4.53;;;2.80;;
65377;SDS011;51982;51.042;13.806;2023-07-22T06:15:39;5.45;;;3.17;;
65377;SDS011;51982;51.042;13.806;2023-07-22T06:18:04;6.60;;;2.93;;
65377;SDS011;51982;51.042;13.806;2023-07-22T06:20:33;6.35;;;3.00;;
65377;SDS011;51982;51.042;13.806;2023-07-22T06:22:59;6.32;;;2.95;;
65377;SDS011;51982;51.042;13.806;2023-07-22T06:25:24;9.13;;;2.92;;
65377;SDS011;51982;51.042;13.806;2023-07-22T06:27:50;4.90;;;2.73;;
65377;SDS011;51982;51.042;13.806;2023-07-22T06:30:15;5.93;;;2.90;;
65377;SDS011;51982;51.042;13.806;2023-07-22T06:32:40;4.85;;;2.80;;
65377;SDS011;51982;51.042;13.806;2023-07-22T06:35:06;6.25;;;2.80;;
65377;SDS011;51982;51.042;13.806;2023-07-22T06:37:32;3.28;;;2.65;;
65377;SDS011;51982;51.042;13.806;2023-07-22T06:39:58;10.45;;;2.65;;
65377;SDS011;51982;51.042;13.806;2023-07-22T06:42:24;6.15;;;3.00;;
65377;SDS011;51982;51.042;13.806;2023-07-22T06:44:49;6.38;;;2.67;;
65377;SDS011;51982;51.042;13.806;2023-07-22T06:47:14;5.00;;;2.97;;
65377;SDS011;51982;51.042;13.806;2023-07-22T06:49:40;6.10;;;2.70;;
65377;SDS011;51982;51.042;13.806;2023-07-22T06:52:07;5.95;;;3.35;;
65377;SDS011;51982;51.042;13.806;2023-07-22T06:54:33;5.32;;;2.70;;
65377;SDS011;51982;51.042;13.806;2023-07-22T06:57:00;4.60;;;2.60;;
65377;SDS011;51982;51.042;13.806;2023-07-22T06:59:25;6.53;;;2.70;;
65377;SDS011;51982;51.042;13.806;2023-07-22T07:01:51;5.28;;;2.80;;
65377;SDS011;51982;51.042;13.806;2023-07-22T07:04:16;4.47;;;2.70;;
65377;SDS011;51982;51.042;13.806;2023-07-22T07:06:42;4.45;;;2.53;;
65377;SDS011;51982;51.042;13.806;2023-07-22T07:09:07;5.93;;;2.60;;
65377;SDS011;51982;51.042;13.806;2023-07-22T07:11:32;3.67;;;2.63;;
65377;SDS011;51982;51.042;13.806;2023-07-22T07:13:58;5.25;;;2.60;;
65377;SDS011;51982;51.042;13.806;2023-07-22T07:16:26;6.90;;;2.90;;
65377;SDS011;51982;51.042;13.806;2023-07-22T07:18:53;4.13;;;2.75;;
65377;SDS011;51982;51.042;13.806;2023-07-22T07:21:20;6.63;;;3.00;;
65377;SDS011;51982;51.042;13.806;2023-07-22T07:23:45;4.28;;;2.88;;
65377;SDS011;51982;51.042;13.806;2023-07-22T07:26:11;4.60;;;2.42;;
65377;SDS011;51982;51.042;13.806;2023-07-22T07:28:36;5.47;;;2.80;;
65377;SDS011;51982;51.042;13.806;2023-07-22T07:31:02;4.25;;;2.70;;
65377;SDS011;51982;51.042;13.806;2023-07-22T07:33:27;4.93;;;2.78;;
65377;SDS011;51982;51.042;13.806;2023-07-22T07:35:53;5.32;;;2.70;;
65377;SDS011;51982;51.042;13.806;2023-07-22T07:38:18;4.68;;;2.90;;
65377;SDS011;51982;51.042;13.806;2023-07-22T07:40:43;4.00;;;2.87;;
65377;SDS011;51982;51.042;13.806;2023-07-22T07:43:09;6.90;;;3.10;;
65377;SDS011;51982;51.042;13.806;2023-07-22T07:45:35;6.97;;;2.97;;
65377;SDS011;51982;51.042;13.806;2023-07-22T07:48:03;4.72;;;3.33;;
65377;SDS011;51982;51.042;13.806;2023-07-22T07:50:29;6.00;;;2.92;;
65377;SDS011;51982;51.042;13.806;2023-07-22T07:52:54;6.78;;;3.20;;
65377;SDS011;51982;51.042;13.806;2023-07-22T07:55:19;2.93;;;2.63;;
65377;SDS011;51982;51.042;13.806;2023-07-22T07:57:44;4.07;;;2.90;;
65377;SDS011;51982;51.042;13.806;2023-07-22T08:00:10;5.43;;;2.78;;
65377;SDS011;51982;51.042;13.806;2023-07-22T08:02:36;4.30;;;2.60;;
65377;SDS011;51982;51.042;13.806;2023-07-22T08:05:02;5.72;;;2.85;;
65377;SDS011;51982;51.042;13.806;2023-07-22T08:07:27;4.50;;;2.55;;
65377;SDS011;51982;51.042;13.806;2023-07-22T08:09:52;6.33;;;2.73;;
65377;SDS011;51982;51.042;13.806;2023-07-22T08:12:17;5.68;;;2.60;;
65377;SDS011;51982;51.042;13.806;2023-07-22T08:14:43;8.65;;;2.63;;
65377;SDS011;51982;51.042;13.806;2023-07-22T08:17:08;9.25;;;2.83;;
65377;SDS011;51982;51.042;13.806;2023-07-22T08:19:34;6.45;;;2.53;;
65377;SDS011;51982;51.042;13.806;2023-07-22T08:21:59;8.60;;;3.20;;
65377;SDS011;51982;51.042;13.806;2023-07-22T08:24:24;6.73;;;2.70;;
65377;SDS011;51982;51.042;13.806;2023-07-22T08:26:49;3.23;;;2.60;;
65377;SDS011;51982;51.042;13.806;2023-07-22T08:29:15;5.13;;;2.47;;
65377;SDS011;51982;51.042;13.806;2023-07-22T08:31:40;4.00;;;2.58;;
65377;SDS011;51982;51.042;13.806;2023-07-22T08:34:05;5.18;;;3.15;;
65377;SDS011;51982;51.042;13.806;2023-07-22T08:36:31;5.05;;;2.78;;
65377;SDS011;51982;51.042;13.806;2023-07-22T08:38:56;10.80;;;3.27;;
65377;SDS011;51982;51.042;13.806;2023-07-22T08:41:21;3.92;;;2.60;;
65377;SDS011;51982;51.042;13.806;2023-07-22T08:43:50;5.78;;;3.05;;
65377;SDS011;51982;51.042;13.806;2023-07-22T08:46:15;7.32;;;3.00;;
65377;SDS011;51982;51.042;13.806;2023-07-22T08:48:44;3.83;;;2.88;;
65377;SDS011;51982;51.042;13.806;2023-07-22T08:51:17;5.10;;;2.47;;
65377;SDS011;51982;51.042;13.806;2023-07-22T08:53:44;7.43;;;2.60;;
65377;SDS011;51982;51.042;13.806;2023-07-22T08:56:10;4.43;;;2.67;;
65377;SDS011;51982;51.042;13.806;2023-07-22T08:58:36;7.05;;;3.10;;
65377;SDS011;51982;51.042;13.806;2023-07-22T09:01:02;4.00;;;2.72;;
65377;SDS011;51982;51.042;13.806;2023-07-22T09:03:28;6.13;;;2.75;;
65377;SDS011;51982;51.042;13.806;2023-07-22T09:05:54;3.50;;;2.22;;
65377;SDS011;51982;51.042;13.806;2023-07-22T09:08:20;4.15;;;2.67;;
65377;SDS011;51982;51.042;13.806;2023-07-22T09:10:45;8.25;;;2.70;;
65377;SDS011;51982;51.042;13.806;2023-07-22T09:13:11;4.82;;;2.60;;
65377;SDS011;51982;51.042;13.806;2023-07-22T09:15:40;5.25;;;1.90;;
65377;SDS011;51982;51.042;13.806;2023-07-22T09:18:07;4.10;;;2.10;;
65377;SDS011;51982;51.042;13.806;2023-07-22T09:20:33;6.95;;;2.40;;
65377;SDS011;51982;51.042;13.806;2023-07-22T09:22:59;3.53;;;2.05;;
65377;SDS011;51982;51.042;13.806;2023-07-22T09:25:26;3.42;;;2.35;;
65377;SDS011;51982;51.042;13.806;2023-07-22T09:27:53;4.53;;;2.15;;
65377;SDS011;51982;51.042;13.806;2023-07-22T09:30:31;5.35;;;2.50;;
65377;SDS011;51982;51.042;13.806;2023-07-22T09:33:22;2.95;;;2.10;;
65377;SDS011;51982;51.042;13.806;2023-07-22T09:35:48;3.17;;;2.17;;
65377;SDS011;51982;51.042;13.806;2023-07-22T09:38:14;4.03;;;2.00;;
65377;SDS011;51982;51.042;13.806;2023-07-22T09:40:46;5.38;;;2.03;;
65377;SDS011;51982;51.042;13.806;2023-07-22T09:43:12;4.07;;;2.00;;
65377;SDS011;51982;51.042;13.806;2023-07-22T09:45:37;7.95;;;1.88;;
65377;SDS011;51982;51.042;13.806;2023-07-22T09:48:03;3.03;;;2.15;;
65377;SDS011;51982;51.042;13.806;2023-07-22T09:50:31;2.75;;;2.10;;
65377;SDS011;51982;51.042;13.806;2023-07-22T09:52:57;3.65;;;2.00;;
65377;SDS011;51982;51.042;13.806;2023-07-22T09:55:24;3.00;;;2.08;;
65377;SDS011;51982;51.042;13.806;2023-07-22T09:57:55;3.28;;;2.05;;
65377;SDS011;51982;51.042;13.806;2023-07-22T10:00:29;3.85;;;2.10;;
65377;SDS011;51982;51.042;13.806;2023-07-22T10:02:56;5.45;;;1.73;;
65377;SDS011;51982;51.042;13.806;2023-07-22T10:05:22;2.15;;;1.75;;
65377;SDS011;51982;51.042;13.806;2023-07-22T10:07:50;2.05;;;1.85;;
65377;SDS011;51982;51.042;13.806;2023-07-22T10:10:18;2.78;;;2.00;;
65377;SDS011;51982;51.042;13.806;2023-07-22T10:12:45;5.03;;;1.92;;
65377;SDS011;51982;51.042;13.806;2023-07-22T10:15:12;2.13;;;1.90;;
65377;SDS011;51982;51.042;13.806;2023-07-22T10:17:39;3.00;;;2.10;;
65377;SDS011;51982;51.042;13.806;2023-07-22T10:20:06;3.25;;;2.10;;
65377;SDS011;51982;51.042;13.806;2023-07-22T10:22:36;3.50;;;2.05;;
65377;SDS011;51982;51.042;13.806;2023-07-22T10:25:03;3.97;;;1.88;;
65377;SDS011;51982;51.042;13.806;2023-07-22T10:27:30;2.97;;;2.10;;
65377;SDS011;51982;51.042;13.806;2023-07-22T10:29:56;2.78;;;1.83;;
65377;SDS011;51982;51.042;13.806;2023-07-22T10:32:21;3.60;;;1.98;;
65377;SDS011;51982;51.042;13.806;2023-07-22T10:34:46;2.53;;;2.00;;
65377;SDS011;51982;51.042;13.806;2023-07-22T10:37:17;3.95;;;1.60;;
65377;SDS011;51982;51.042;13.806;2023-07-22T10:39:43;2.58;;;1.73;;
65377;SDS011;51982;51.042;13.806;2023-07-22T10:42:08;3.40;;;1.70;;
65377;SDS011;51982;51.042;13.806;2023-07-22T10:44:37;2.10;;;1.63;;
65377;SDS011;51982;51.042;13.806;2023-07-22T10:47:03;4.95;;;2.10;;
65377;SDS011;51982;51.042;13.806;2023-07-22T10:49:45;3.47;;;2.20;;
65377;SDS011;51982;51.042;13.806;2023-07-22T10:52:12;4.95;;;1.80;;
65377;SDS011;51982;51.042;13.806;2023-07-22T10:54:40;2.70;;;1.67;;
65377;SDS011;51982;51.042;13.806;2023-07-22T10:59:41;4.30;;;1.80;;
65377;SDS011;51982;51.042;13.806;2023-07-22T11:02:22;2.63;;;1.85;;
65377;SDS011;51982;51.042;13.806;2023-07-22T11:04:49;1.65;;;1.55;;
65377;SDS011;51982;51.042;13.806;2023-07-22T11:07:14;2.63;;;1.90;;
65377;SDS011;51982;51.042;13.806;2023-07-22T11:09:39;3.75;;;1.80;;
65377;SDS011;51982;51.042;13.806;2023-07-22T11:12:08;2.95;;;2.08;;
65377;SDS011;51982;51.042;13.806;2023-07-22T11:17:11;2.65;;;1.70;;
65377;SDS011;51982;51.042;13.806;2023-07-22T11:19:37;2.22;;;1.85;;
65377;SDS011;51982;51.042;13.806;2023-07-22T11:22:03;3.22;;;1.90;;
65377;SDS011;51982;51.042;13.806;2023-07-22T11:24:31;3.97;;;1.92;;
65377;SDS011;51982;51.042;13.806;2023-07-22T11:26:59;4.05;;;2.00;;
65377;SDS011;51982;51.042;13.806;2023-07-22T11:29:27;2.47;;;1.90;;
65377;SDS011;51982;51.042;13.806;2023-07-22T11:31:52;3.05;;;2.13;;
65377;SDS011;51982;51.042;13.806;2023-07-22T11:34:19;2.40;;;1.77;;
65377;SDS011;51982;51.042;13.806;2023-07-22T11:36:45;2.22;;;1.67;;
65377;SDS011;51982;51.042;13.806;2023-07-22T11:39:12;3.00;;;2.03;;
65377;SDS011;51982;51.042;13.806;2023-07-22T11:41:39;2.97;;;1.83;;
65377;SDS011;51982;51.042;13.806;2023-07-22T11:44:06;3.35;;;1.80;;
65377;SDS011;51982;51.042;13.806;2023-07-22T11:46:34;5.25;;;1.95;;
65377;SDS011;51982;51.042;13.806;2023-07-22T11:49:00;2.58;;;2.10;;
65377;SDS011;51982;51.042;13.806;2023-07-22T11:51:25;3.42;;;1.83;;
65377;SDS011;51982;51.042;13.806;2023-07-22T11:53:51;4.03;;;1.90;;
65377;SDS011;51982;51.042;13.806;2023-07-22T11:56:21;2.60;;;2.00;;
65377;SDS011;51982;51.042;13.806;2023-07-22T11:58:51;5.80;;;2.00;;
65377;SDS011;51982;51.042;13.806;2023-07-22T12:01:17;2.97;;;1.90;;
65377;SDS011;51982;51.042;13.806;2023-07-22T12:03:44;3.75;;;1.90;;
65377;SDS011;51982;51.042;13.806;2023-07-22T12:06:09;2.38;;;1.88;;
65377;SDS011;51982;51.042;13.806;2023-07-22T12:08:35;5.68;;;1.80;;
65377;SDS011;51982;51.042;13.806;2023-07-22T12:11:01;2.30;;;2.00;;
65377;SDS011;51982;51.042;13.806;2023-07-22T12:13:35;2.40;;;1.75;;
65377;SDS011;51982;51.042;13.806;2023-07-22T12:16:04;3.22;;;1.90;;
65377;SDS011;51982;51.042;13.806;2023-07-22T12:18:43;3.53;;;2.08;;
65377;SDS011;51982;51.042;13.806;2023-07-22T12:21:11;3.58;;;2.13;;
65377;SDS011;51982;51.042;13.806;2023-07-22T12:23:40;2.70;;;2.00;;
65377;SDS011;51982;51.042;13.806;2023-07-22T12:26:06;2.75;;;1.70;;
65377;SDS011;51982;51.042;13.806;2023-07-22T12:28:32;2.72;;;1.95;;
65377;SDS011;51982;51.042;13.806;2023-07-22T12:30:57;2.47;;;1.52;;
65377;SDS011;51982;51.042;13.806;2023-07-22T12:33:23;2.60;;;1.83;;
65377;SDS011;51982;51.042;13.806;2023-07-22T12:35:53;2.35;;;1.77;;
65377;SDS011;51982;51.042;13.806;2023-07-22T12:38:19;2.42;;;1.75;;
65377;SDS011;51982;51.042;13.806;2023-07-22T12:40:45;1.90;;;1.70;;
65377;SDS011;51982;51.042;13.806;2023-07-22T12:43:10;3.22;;;1.70;;
65377;SDS011;51982;51.042;13.806;2023-07-22T12:45:35;2.53;;;1.65;;
65377;SDS011;51982;51.042;13.806;2023-07-22T12:48:01;2.47;;;1.80;;
65377;SDS011;51982;51.042;13.806;2023-07-22T12:50:26;3.47;;;1.90;;
65377;SDS011;51982;51.042;13.806;2023-07-22T12:52:51;3.10;;;1.58;;
65377;SDS011;51982;51.042;13.806;2023-07-22T12:55:16;2.53;;;1.73;;
65377;SDS011;51982;51.042;13.806;2023-07-22T12:57:42;3.13;;;1.90;;
65377;SDS011;51982;51.042;13.806;2023-07-22T13:00:07;3.23;;;1.73;;
65377;SDS011;51982;51.042;13.806;2023-07-22T13:02:35;2.25;;;1.50;;
65377;SDS011;51982;51.042;13.806;2023-07-22T13:05:01;2.30;;;1.77;;
65377;SDS011;51982;51.042;13.806;2023-07-22T13:07:26;2.88;;;1.70;;
65377;SDS011;51982;51.042;13.806;2023-07-22T13:09:52;4.30;;;1.80;;
65377;SDS011;51982;51.042;13.806;2023-07-22T13:12:20;3.55;;;1.98;;
65377;SDS011;51982;51.042;13.806;2023-07-22T13:14:45;2.50;;;1.80;;
65377;SDS011;51982;51.042;13.806;2023-07-22T13:17:10;2.20;;;1.77;;
65377;SDS011;51982;51.042;13.806;2023-07-22T13:19:36;7.23;;;1.80;;
65377;SDS011;51982;51.042;13.806;2023-07-22T13:22:01;3.15;;;1.73;;
65377;SDS011;51982;51.042;13.806;2023-07-22T13:24:26;2.50;;;1.70;;
65377;SDS011;51982;51.042;13.806;2023-07-22T13:26:51;2.72;;;1.80;;
65377;SDS011;51982;51.042;13.806;2023-07-22T13:29:17;5.30;;;1.80;;
65377;SDS011;51982;51.042;13.806;2023-07-22T13:31:42;5.33;;;1.80;;
65377;SDS011;51982;51.042;13.806;2023-07-22T13:34:07;2.77;;;1.80;;
65377;SDS011;51982;51.042;13.806;2023-07-22T13:36:32;2.85;;;1.83;;
65377;SDS011;51982;51.042;13.806;2023-07-22T13:38:58;2.83;;;1.70;;
65377;SDS011;51982;51.042;13.806;2023-07-22T13:41:23;5.80;;;1.90;;
65377;SDS011;51982;51.042;13.806;2023-07-22T13:43:48;2.83;;;1.58;;
65377;SDS011;51982;51.042;13.806;2023-07-22T13:46:13;2.97;;;1.93;;
65377;SDS011;51982;51.042;13.806;2023-07-22T13:48:39;2.97;;;1.80;;
65377;SDS011;51982;51.042;13.806;2023-07-22T13:51:04;3.63;;;1.80;;
65377;SDS011;51982;51.042;13.806;2023-07-22T13:53:29;2.15;;;1.83;;
65377;SDS011;51982;51.042;13.806;2023-07-22T13:55:54;1.97;;;1.60;;
65377;SDS011;51982;51.042;13.806;2023-07-22T13:58:20;2.80;;;1.80;;
65377;SDS011;51982;51.042;13.806;2023-07-22T14:00:45;2.23;;;1.70;;
65377;SDS011;51982;51.042;13.806;2023-07-22T14:03:10;8.75;;;1.90;;
65377;SDS011;51982;51.042;13.806;2023-07-22T14:05:35;3.22;;;2.05;;
65377;SDS011;51982;51.042;13.806;2023-07-22T14:08:01;2.63;;;2.00;;
65377;SDS011;51982;51.042;13.806;2023-07-22T14:10:26;4.22;;;1.80;;
65377;SDS011;51982;51.042;13.806;2023-07-22T14:12:51;2.58;;;1.80;;
65377;SDS011;51982;51.042;13.806;2023-07-22T14:15:16;3.00;;;2.10;;
65377;SDS011;51982;51.042;13.806;2023-07-22T14:17:42;3.83;;;1.70;;
65377;SDS011;51982;51.042;13.806;2023-07-22T14:20:07;3.70;;;1.67;;
65377;SDS011;51982;51.042;13.806;2023-07-22T14:22:33;4.03;;;2.10;;
65377;SDS011;51982;51.042;13.806;2023-07-22T14:24:58;4.13;;;2.10;;
65377;SDS011;51982;51.042;13.806;2023-07-22T14:27:23;4.07;;;1.77;;
65377;SDS011;51982;51.042;13.806;2023-07-22T14:29:48;3.00;;;2.10;;
65377;SDS011;51982;51.042;13.806;2023-07-22T14:32:14;15.75;;;9.93;;